createdAt,value
2023-02-28T00:57:36.488Z,98.65
2023-02-28T00:58:36.577Z,99.91
2023-02-28T00:59:36.609Z,96.13
2023-02-28T01:00:36.642Z,98.11
2023-02-28T01:01:36.732Z,98.59
2023-02-28T01:02:36.785Z,96.07
2023-02-28T01:03:36.847Z,96.81
2023-02-28T01:04:36.866Z,96.79
2023-02-28T01:05:36.945Z,98.91
2023-02-28T01:06:37.027Z,96.58
2023-02-28T01:07:37.076Z,98.33
2023-02-28T01:08:37.141Z,98.43
2023-02-28T01:09:37.203Z,96.48
2023-02-28T01:10:37.318Z,98.16
2023-02-28T01:11:37.304Z,99.61
2023-02-28T01:12:37.395Z,99.59
2023-02-28T01:13:37.415Z,96.16
2023-02-28T01:14:37.499Z,96.74
2023-02-28T01:15:37.562Z,98.00
2023-02-28T01:16:37.617Z,97.22
2023-02-28T01:17:37.646Z,93.05
2023-02-28T01:18:37.737Z,100.42
2023-02-28T01:20:37.773Z,99.68
2023-02-28T01:21:37.848Z,102.69
2023-02-28T01:22:37.881Z,102.14
2023-02-28T01:23:37.970Z,102.81
2023-02-28T01:24:38.005Z,101.52
2023-02-28T01:25:38.121Z,100.14
2023-02-28T01:26:38.133Z,102.04
2023-02-28T01:27:38.162Z,99.58
2023-02-28T01:28:38.210Z,102.15
2023-02-28T01:29:38.246Z,103.20
2023-02-28T01:30:38.280Z,101.58
2023-02-28T01:31:38.366Z,101.01
2023-02-28T01:32:38.440Z,99.64
2023-02-28T01:33:38.449Z,99.80
2023-02-28T01:34:38.512Z,104.45
2023-02-28T01:35:38.652Z,101.92
2023-02-28T01:36:38.609Z,99.59
2023-02-28T01:37:38.674Z,100.16
2023-02-28T01:38:38.726Z,100.49
2023-02-28T01:39:38.785Z,100.99
2023-02-28T01:40:38.809Z,102.34
2023-02-28T01:41:38.831Z,99.80
2023-02-28T01:42:38.878Z,100.72
2023-02-28T01:43:38.964Z,104.22
2023-02-28T01:44:38.988Z,99.53
2023-02-28T01:45:39.043Z,103.33
2023-02-28T01:46:39.137Z,102.14
2023-02-28T01:47:39.158Z,104.32
2023-02-28T01:48:39.209Z,104.42
2023-02-28T01:49:39.275Z,101.96
2023-02-28T01:50:39.327Z,103.86
2023-02-28T01:51:39.324Z,103.23
2023-02-28T01:52:39.435Z,102.35
2023-02-28T01:53:39.510Z,103.98
2023-02-28T01:54:39.502Z,101.37
2023-02-28T01:55:39.547Z,101.16
2023-02-28T01:56:39.601Z,102.54
2023-02-28T01:57:39.663Z,104.65
2023-02-28T01:58:39.730Z,105.03
2023-02-28T01:59:39.769Z,102.13
2023-02-28T02:00:39.848Z,103.75
2023-02-28T02:01:39.867Z,104.90
2023-02-28T02:02:39.980Z,107.25
2023-02-28T02:03:39.968Z,105.72
2023-02-28T02:04:40.001Z,106.94
2023-02-28T02:05:40.054Z,105.31
2023-02-28T02:06:40.098Z,107.52
2023-02-28T02:07:40.139Z,106.28
2023-02-28T02:08:40.210Z,105.09
2023-02-28T02:09:40.262Z,110.96
2023-02-28T02:10:40.266Z,108.57
2023-02-28T02:11:40.376Z,108.56
2023-02-28T02:12:40.468Z,106.47
2023-02-28T02:13:40.482Z,105.59
2023-02-28T02:14:40.520Z,108.44
2023-02-28T02:15:40.597Z,108.87
2023-02-28T02:16:40.619Z,110.37
2023-02-28T02:17:40.690Z,109.59
2023-02-28T02:18:40.739Z,107.64
2023-02-28T02:19:40.792Z,105.61
2023-02-28T02:20:40.909Z,109.44
2023-02-28T02:21:40.849Z,109.83
2023-02-28T02:22:40.864Z,107.33
2023-02-28T02:23:40.926Z,110.20
2023-02-28T02:24:40.985Z,107.38
2023-02-28T02:27:41.143Z,111.21
2023-02-28T02:28:41.200Z,108.75
2023-02-28T02:29:41.239Z,109.59
2023-02-28T02:30:41.313Z,108.35
2023-02-28T02:31:41.473Z,111.98
2023-02-28T02:32:41.399Z,108.30
2023-02-28T02:33:41.441Z,112.04
2023-02-28T02:34:41.514Z,109.42
2023-02-28T02:35:41.589Z,111.16
2023-02-28T02:36:41.577Z,111.47
2023-02-28T02:37:41.620Z,109.41
2023-02-28T02:38:41.659Z,110.21
2023-02-28T02:39:41.751Z,111.85
2023-02-28T02:40:41.779Z,110.30
2023-02-28T02:41:41.855Z,108.89
2023-02-28T02:42:41.891Z,112.57
2023-02-28T02:43:41.977Z,111.84
2023-02-28T02:44:41.990Z,112.95
2023-02-28T02:45:42.039Z,112.41
2023-02-28T02:46:42.152Z,112.85
2023-02-28T02:47:42.132Z,111.15
2023-02-28T02:48:42.235Z,106.45
2023-02-28T02:49:42.215Z,112.11
2023-02-28T02:50:42.261Z,110.98
2023-02-28T02:51:42.342Z,110.48
2023-02-28T02:52:42.375Z,111.52
2023-02-28T02:53:42.459Z,112.03
2023-02-28T02:54:42.496Z,109.98
2023-02-28T02:55:42.543Z,111.01
2023-02-28T02:56:42.566Z,112.01
2023-02-28T02:57:42.619Z,110.23
2023-02-28T02:58:42.685Z,110.89
2023-02-28T02:59:42.737Z,110.51
2023-02-28T03:00:42.852Z,110.83
2023-02-28T03:01:42.840Z,109.53
2023-02-28T03:02:42.928Z,109.57
2023-02-28T03:03:43.085Z,110.11
2023-02-28T03:04:43.037Z,110.82
2023-02-28T03:05:43.089Z,112.13
2023-02-28T03:06:43.161Z,112.15
2023-02-28T03:07:43.198Z,111.07
2023-02-28T03:08:43.271Z,106.73
2023-02-28T03:09:43.323Z,112.29
2023-02-28T03:10:43.390Z,109.59
2023-02-28T03:11:43.421Z,110.76
2023-02-28T03:12:43.508Z,111.98
2023-02-28T03:13:44.025Z,109.83
2023-02-28T03:14:43.623Z,109.21
2023-02-28T03:15:43.618Z,110.05
2023-02-28T03:16:43.737Z,108.47
2023-02-28T03:17:43.745Z,111.17
2023-02-28T03:18:43.799Z,111.19
2023-02-28T03:19:43.861Z,112.03
2023-02-28T03:20:43.952Z,112.94
2023-02-28T03:21:43.985Z,115.73
2023-02-28T03:22:44.044Z,112.71
2023-02-28T03:23:44.087Z,113.27
2023-02-28T03:24:44.163Z,113.72
2023-02-28T03:25:44.207Z,112.37
2023-02-28T03:26:44.281Z,114.58
2023-02-28T03:27:44.320Z,114.73
2023-02-28T03:28:44.373Z,110.76
2023-02-28T03:29:44.396Z,112.55
2023-02-28T03:30:44.483Z,111.27
2023-02-28T03:31:44.518Z,114.07
2023-02-28T03:32:44.553Z,114.40
2023-02-28T03:33:44.619Z,113.95
2023-02-28T03:34:44.655Z,113.64
2023-02-28T03:35:44.774Z,114.46
2023-02-28T03:36:44.958Z,114.05
2023-02-28T03:37:44.863Z,110.15
2023-02-28T03:38:44.924Z,111.81
2023-02-28T03:39:44.988Z,113.44
2023-02-28T03:40:45.028Z,113.21
2023-02-28T03:41:45.070Z,114.16
2023-02-28T03:42:45.184Z,115.92
2023-02-28T03:43:45.266Z,113.06
2023-02-28T03:44:45.276Z,112.67
2023-02-28T03:45:45.399Z,116.49
2023-02-28T03:46:45.398Z,112.69
2023-02-28T03:47:45.507Z,113.55
2023-02-28T03:48:45.540Z,116.67
2023-02-28T03:49:45.596Z,114.96
2023-02-28T03:50:45.652Z,115.35
2023-02-28T03:51:45.711Z,115.01
2023-02-28T03:52:45.767Z,114.59
2023-02-28T03:53:45.812Z,114.37
2023-02-28T03:54:45.872Z,114.08
2023-02-28T03:55:45.953Z,115.00
2023-02-28T03:56:46.001Z,115.87
2023-02-28T03:57:46.117Z,114.20
2023-02-28T03:58:46.165Z,114.50
2023-02-28T03:59:46.200Z,116.24
2023-02-28T04:00:46.294Z,118.05
2023-02-28T04:01:46.416Z,117.48
2023-02-28T04:02:46.434Z,118.87
2023-02-28T04:03:46.460Z,119.43
2023-02-28T04:04:46.539Z,118.72
2023-02-28T04:05:46.607Z,115.66
2023-02-28T04:06:46.668Z,117.50
2023-02-28T04:07:46.687Z,118.55
2023-02-28T04:08:46.751Z,118.91
2023-02-28T04:09:46.809Z,118.52
2023-02-28T04:10:46.877Z,118.73
2023-02-28T04:11:46.913Z,116.33
2023-02-28T04:12:46.993Z,119.30
2023-02-28T04:13:47.655Z,118.21
2023-02-28T04:14:47.147Z,117.34
2023-02-28T04:15:47.187Z,117.81
2023-02-28T04:16:47.265Z,121.06
2023-02-28T04:17:47.306Z,120.93
2023-02-28T04:18:47.387Z,118.69
2023-02-28T04:19:48.055Z,118.99
2023-02-28T04:20:47.528Z,117.68
2023-02-28T04:21:47.554Z,120.54
2023-02-28T04:22:47.615Z,122.41
2023-02-28T04:23:47.649Z,120.36
2023-02-28T04:24:47.745Z,120.59
2023-02-28T04:25:47.771Z,119.83
2023-02-28T04:26:47.867Z,121.98
2023-02-28T04:27:47.908Z,121.23
2023-02-28T04:28:47.947Z,120.09
2023-02-28T04:29:48.015Z,121.02
2023-02-28T04:30:48.083Z,122.14
2023-02-28T04:31:48.254Z,120.81
2023-02-28T04:32:48.201Z,118.74
2023-02-28T04:33:48.257Z,120.10
2023-02-28T04:34:48.334Z,119.81
2023-02-28T04:35:48.406Z,120.90
2023-02-28T04:36:51.082Z,118.45
2023-02-28T04:37:49.410Z,118.60
2023-02-28T04:38:48.404Z,119.26
2023-02-28T04:39:48.395Z,119.55
2023-02-28T04:40:48.404Z,121.91
2023-02-28T04:41:48.378Z,121.97
2023-02-28T04:42:48.404Z,122.14
2023-02-28T04:43:48.408Z,122.70
2023-02-28T04:44:48.355Z,122.65
2023-02-28T04:45:48.437Z,123.24
2023-02-28T04:46:48.421Z,122.62
2023-02-28T04:47:48.459Z,125.42
2023-02-28T04:48:48.538Z,123.01
2023-02-28T04:49:48.587Z,125.43
2023-02-28T04:50:48.606Z,127.32
2023-02-28T04:53:48.847Z,127.26
2023-02-28T04:56:49.042Z,127.51
2023-02-28T04:57:49.050Z,126.28
2023-02-28T04:58:49.172Z,127.07
2023-02-28T04:59:49.200Z,126.41
2023-02-28T05:00:49.248Z,128.03
2023-02-28T05:01:49.309Z,125.27
2023-02-28T05:02:49.372Z,126.50
2023-02-28T06:00:58.734Z,127.80
2023-02-28T06:01:51.686Z,128.05
2023-02-28T06:02:51.686Z,128.35
2023-02-28T06:03:51.668Z,128.18
2023-02-28T06:04:51.675Z,128.01
2023-02-28T06:05:51.650Z,127.56
2023-02-28T06:06:51.668Z,128.72
2023-02-28T06:07:51.671Z,129.66
2023-02-28T06:08:51.672Z,128.56
2023-02-28T06:09:51.628Z,127.17
2023-02-28T06:10:51.643Z,129.16
2023-02-28T06:11:51.645Z,128.76
2023-02-28T06:12:51.630Z,129.24
2023-02-28T06:13:51.596Z,131.43
2023-02-28T06:14:51.607Z,133.32
2023-02-28T06:15:51.580Z,135.06
2023-02-28T06:16:51.654Z,134.69
2023-02-28T06:17:51.588Z,137.45
2023-02-28T06:18:51.596Z,137.53
2023-02-28T06:19:51.604Z,138.95
2023-02-28T06:20:51.561Z,142.64
2023-02-28T06:21:51.578Z,142.27
2023-02-28T06:22:51.573Z,143.28
2023-02-28T06:23:51.533Z,142.34
2023-02-28T06:24:51.532Z,146.18
2023-02-28T06:25:51.548Z,139.00
2023-02-28T06:26:51.666Z,143.76
2023-02-28T06:27:51.513Z,146.89
2023-02-28T06:28:51.509Z,146.34
2023-02-28T06:29:51.505Z,146.23
2023-02-28T06:30:51.555Z,148.90
2023-02-28T06:31:51.488Z,149.41
2023-02-28T06:32:51.485Z,151.74
2023-02-28T06:33:51.510Z,150.02
2023-02-28T06:34:51.658Z,149.30
2023-02-28T06:35:52.085Z,148.90
2023-02-28T06:36:51.618Z,174.95
2023-02-28T06:37:51.667Z,168.50
2023-02-28T06:38:51.733Z,167.66
2023-02-28T06:39:52.147Z,179.68
2023-02-28T06:40:51.868Z,175.17
2023-02-28T06:41:55.540Z,172.68
2023-02-28T06:42:51.862Z,172.72
2023-02-28T06:43:51.861Z,173.34
2023-02-28T06:44:52.133Z,170.90
2023-02-28T06:45:59.705Z,171.80
2023-02-28T06:48:51.859Z,169.93
2023-02-28T06:49:51.818Z,168.82
2023-02-28T06:50:51.785Z,175.88
2023-02-28T06:51:52.216Z,178.38
2023-02-28T06:52:53.650Z,180.85
2023-02-28T06:53:51.830Z,179.09
2023-02-28T06:54:51.850Z,177.75
2023-02-28T06:55:51.768Z,177.37
2023-02-28T06:56:51.823Z,189.10
2023-02-28T06:57:51.792Z,181.12
2023-02-28T06:58:51.816Z,189.13
2023-02-28T06:59:51.923Z,193.38
2023-02-28T07:00:51.821Z,187.81
2023-02-28T07:01:52.722Z,191.93
2023-02-28T07:02:51.862Z,194.25
2023-02-28T07:03:51.871Z,183.37
2023-02-28T07:04:51.888Z,188.69
2023-02-28T07:05:52.001Z,203.48
2023-02-28T07:06:51.888Z,199.85
2023-02-28T07:07:51.892Z,210.98
2023-02-28T07:08:51.917Z,214.34
2023-02-28T07:09:51.934Z,188.11
2023-02-28T10:28:14.002Z,12.42
2023-02-28T10:29:13.991Z,70.77
2023-02-28T10:30:13.989Z,50.25
2023-02-28T10:31:14.073Z,118.52
2023-02-28T10:32:14.118Z,118.26
2023-02-28T10:33:14.173Z,96.05
2023-02-28T10:34:14.125Z,143.86
2023-02-28T10:35:14.168Z,130.63
2023-02-28T10:36:14.274Z,122.09
2023-02-28T10:37:14.198Z,113.27
2023-02-28T10:38:14.674Z,129.97
2023-02-28T10:39:14.322Z,128.37
2023-02-28T10:40:14.377Z,124.37
2023-02-28T10:41:14.484Z,108.01
2023-02-28T10:42:14.485Z,99.28
2023-02-28T10:43:14.663Z,115.40
2023-02-28T10:44:14.606Z,105.42
2023-02-28T10:45:14.677Z,93.16
2023-02-28T10:46:14.737Z,104.14
2023-02-28T10:47:14.772Z,112.52
2023-02-28T10:48:15.157Z,120.97
2023-02-28T10:49:14.856Z,119.45
2023-02-28T10:50:14.964Z,119.57
2023-02-28T10:51:15.041Z,122.04
2023-02-28T10:52:15.016Z,114.77
2023-02-28T10:53:15.070Z,113.15
2023-02-28T10:54:15.091Z,120.25
2023-02-28T10:55:15.129Z,118.01
2023-02-28T10:56:15.211Z,112.23
2023-02-28T10:57:15.199Z,114.84
2023-02-28T10:58:15.256Z,116.14
2023-02-28T10:59:15.327Z,119.47
2023-02-28T11:00:15.339Z,113.87
2023-02-28T11:01:15.348Z,114.43
2023-02-28T11:02:15.394Z,113.20
2023-02-28T11:03:15.456Z,112.18
2023-02-28T11:04:15.450Z,108.57
2023-02-28T11:05:15.408Z,106.37
2023-02-28T11:06:15.436Z,109.26
2023-02-28T11:07:16.211Z,106.78
2023-02-28T11:08:15.464Z,105.01
2023-02-28T11:09:15.511Z,107.12
2023-02-28T11:10:15.500Z,105.67
2023-02-28T11:11:15.553Z,74.21
2023-02-28T11:12:15.560Z,81.65
2023-02-28T11:13:15.663Z,82.81
2023-02-28T11:14:15.676Z,100.16
2023-02-28T11:15:15.681Z,95.61
2023-02-28T11:16:15.753Z,96.50
2023-02-28T11:17:15.803Z,98.34
2023-02-28T11:18:15.811Z,95.09
2023-02-28T11:19:15.912Z,90.09
2023-02-28T11:20:15.888Z,92.15
2023-02-28T11:21:15.929Z,93.53
2023-02-28T11:22:15.933Z,94.76
2023-02-28T11:23:15.946Z,94.19
2023-02-28T11:24:15.978Z,95.74
2023-02-28T11:25:16.014Z,96.35
2023-02-28T11:26:15.981Z,96.62
2023-02-28T11:27:16.029Z,99.03
2023-02-28T11:28:16.038Z,94.87
2023-02-28T11:29:16.038Z,90.75
2023-02-28T11:30:16.043Z,94.14
2023-02-28T11:31:16.095Z,95.30
2023-02-28T11:32:16.156Z,95.19
2023-02-28T11:33:16.062Z,90.39
2023-02-28T11:34:16.016Z,90.63
2023-02-28T11:35:16.039Z,87.27
2023-02-28T11:36:16.136Z,83.76
2023-02-28T11:37:16.082Z,85.94
2023-02-28T11:38:16.210Z,88.59
2023-02-28T11:39:16.065Z,85.91
2023-02-28T11:40:16.067Z,71.04
2023-02-28T11:41:16.013Z,86.32
2023-02-28T11:42:16.024Z,88.22
2023-02-28T11:43:16.036Z,89.99
2023-02-28T11:44:16.068Z,93.09
2023-02-28T11:45:16.060Z,94.91
2023-02-28T11:46:16.077Z,100.82
2023-02-28T11:47:16.070Z,92.10
2023-02-28T11:48:16.098Z,101.33
2023-02-28T11:49:16.084Z,103.29
2023-02-28T11:50:16.147Z,91.26
2023-02-28T11:51:16.053Z,97.82
2023-02-28T11:52:16.041Z,100.16
2023-02-28T11:53:16.178Z,101.44
2023-02-28T11:54:16.054Z,101.76
2023-02-28T11:55:16.054Z,99.69
2023-02-28T11:56:16.060Z,96.66
2023-02-28T11:57:16.042Z,95.45
2023-02-28T11:58:16.074Z,94.29
2023-02-28T11:59:16.107Z,94.69
2023-02-28T12:00:16.093Z,90.40
2023-02-28T12:01:16.123Z,88.56
2023-02-28T12:02:16.205Z,91.44
2023-02-28T12:03:16.211Z,101.25
2023-02-28T12:04:16.263Z,104.78
2023-02-28T12:05:16.249Z,112.19
2023-02-28T12:06:16.320Z,112.76
2023-02-28T12:07:16.312Z,112.92
2023-02-28T12:08:16.395Z,115.55
2023-02-28T12:09:16.403Z,118.98
2023-02-28T12:10:16.437Z,126.09
2023-02-28T12:11:16.483Z,129.38
2023-02-28T12:12:16.523Z,127.33
2023-02-28T12:13:16.653Z,134.00
2023-02-28T12:14:16.713Z,134.46
2023-02-28T12:15:16.606Z,137.07
2023-02-28T12:16:16.670Z,119.48
2023-02-28T12:17:16.639Z,126.80
2023-02-28T12:18:16.609Z,133.30
2023-02-28T12:19:16.754Z,134.13
2023-02-28T12:20:16.650Z,128.01
2023-02-28T12:21:16.647Z,131.22
2023-02-28T12:22:16.688Z,129.18
2023-02-28T12:23:16.709Z,129.58
2023-02-28T12:24:16.717Z,120.97
2023-02-28T12:25:16.832Z,121.13
2023-02-28T12:26:16.827Z,124.91
2023-02-28T12:27:16.922Z,115.72
2023-02-28T12:28:16.979Z,121.05
2023-02-28T12:29:17.262Z,122.89
2023-02-28T12:30:17.126Z,122.87
2023-02-28T12:31:17.145Z,126.15
2023-02-28T12:32:17.355Z,127.49
2023-02-28T12:33:17.966Z,125.31
2023-02-28T12:34:17.776Z,128.99
2023-02-28T12:35:17.455Z,124.32
2023-02-28T12:36:17.437Z,125.27
2023-02-28T12:37:17.488Z,131.79
2023-02-28T12:38:17.555Z,130.68
2023-02-28T12:39:17.709Z,130.11
2023-02-28T12:40:17.633Z,128.06
2023-02-28T12:41:17.677Z,131.47
2023-02-28T12:42:17.747Z,126.95
2023-02-28T12:43:17.842Z,133.67
2023-02-28T12:44:17.836Z,127.54
2023-02-28T12:45:17.905Z,127.81
2023-02-28T12:46:18.104Z,126.59
2023-02-28T12:47:18.051Z,125.53
2023-02-28T12:48:18.101Z,120.93
2023-02-28T12:49:18.180Z,126.14
2023-02-28T12:50:18.251Z,120.75
2023-02-28T12:51:18.301Z,119.17
2023-02-28T12:52:18.331Z,120.97
2023-02-28T12:53:18.426Z,115.93
2023-02-28T12:54:18.488Z,115.28
2023-02-28T12:55:18.485Z,117.84
2023-02-28T12:57:18.642Z,113.43
2023-02-28T12:58:18.639Z,113.94
2023-02-28T12:59:18.721Z,114.97
2023-02-28T13:00:18.737Z,109.19
2023-02-28T13:02:18.842Z,105.71
2023-02-28T13:03:18.846Z,108.50
2023-02-28T13:34:20.432Z,118.24
2023-02-28T13:35:20.508Z,119.12
2023-02-28T13:39:20.768Z,128.12
2023-02-28T15:09:24.252Z,185.68
2023-02-28T15:36:24.777Z,166.24
2023-02-28T15:43:24.015Z,159.97
2023-02-28T15:44:24.088Z,157.95
2023-02-28T15:45:24.035Z,160.71
2023-02-28T15:46:24.044Z,159.66
2023-02-28T15:47:24.059Z,156.07
2023-02-28T15:48:24.030Z,154.21
2023-02-28T15:49:24.116Z,149.81
2023-02-28T15:50:24.127Z,156.13
2023-02-28T15:51:24.082Z,157.16
2023-02-28T15:52:24.094Z,149.88
2023-02-28T15:53:24.133Z,151.21
2023-02-28T15:54:24.201Z,150.07
2023-02-28T15:55:24.159Z,148.61
2023-02-28T15:56:24.198Z,144.27
2023-02-28T15:57:24.197Z,144.81
2023-02-28T15:58:24.214Z,144.50
2023-02-28T15:59:24.358Z,147.90
2023-02-28T16:00:24.292Z,143.73
2023-02-28T16:01:24.420Z,136.46
2023-02-28T16:02:24.463Z,137.97
2023-02-28T16:03:24.314Z,134.02
2023-02-28T16:04:24.372Z,140.73
2023-02-28T16:05:24.357Z,135.93
2023-02-28T16:06:24.389Z,137.24
2023-02-28T16:07:24.453Z,134.22
2023-02-28T16:08:24.442Z,133.29
2023-02-28T16:09:24.513Z,134.57
2023-02-28T16:10:24.506Z,135.88
2023-02-28T16:11:24.541Z,137.89
2023-02-28T16:12:24.535Z,132.35
2023-02-28T16:13:24.584Z,138.29
2023-02-28T16:14:24.593Z,132.86
2023-02-28T16:15:24.624Z,130.29
2023-02-28T16:16:24.687Z,135.64
2023-02-28T16:17:24.723Z,122.85
2023-02-28T16:18:24.722Z,125.53
2023-02-28T16:19:24.806Z,125.24
2023-02-28T16:20:24.819Z,116.74
2023-02-28T16:21:24.861Z,118.45
2023-02-28T16:22:24.907Z,115.36
2023-02-28T16:23:24.913Z,111.48
2023-02-28T16:24:24.965Z,108.84
2023-02-28T16:25:25.023Z,106.45
2023-02-28T16:26:25.105Z,106.92
2023-02-28T16:27:25.140Z,106.55
2023-02-28T16:28:25.161Z,98.68
2023-02-28T16:29:25.216Z,96.03
2023-02-28T16:30:25.330Z,94.32
2023-02-28T16:31:25.326Z,95.33
2023-02-28T16:32:25.441Z,95.02
2023-02-28T16:33:25.445Z,90.44
2023-02-28T16:34:25.498Z,90.01
2023-02-28T16:35:25.552Z,89.65
2023-02-28T16:36:25.662Z,87.11
2023-02-28T16:37:25.678Z,85.63
2023-02-28T16:38:25.709Z,79.15
2023-02-28T16:39:25.747Z,77.33
2023-02-28T16:40:25.847Z,77.54
2023-02-28T16:41:25.916Z,74.85
2023-02-28T16:42:25.950Z,77.30
2023-02-28T16:43:26.026Z,74.96
2023-02-28T16:44:26.095Z,72.11
2023-02-28T16:45:26.149Z,73.93
2023-02-28T16:46:26.218Z,81.15
2023-02-28T16:47:26.255Z,72.58
2023-02-28T16:48:26.307Z,67.24
2023-02-28T16:49:26.372Z,76.27
2023-02-28T16:50:26.417Z,67.80
2023-02-28T16:51:26.487Z,68.49
2023-02-28T16:52:26.546Z,69.23
2023-02-28T16:53:26.603Z,61.47
2023-02-28T16:54:26.718Z,59.26
2023-02-28T16:55:26.749Z,63.11
2023-02-28T16:56:26.838Z,62.38
2023-02-28T16:57:26.889Z,65.75
2023-02-28T16:58:26.948Z,55.70
2023-02-28T16:59:26.976Z,55.40
2023-02-28T17:00:27.059Z,51.91
2023-02-28T17:01:27.240Z,53.45
2023-02-28T17:02:27.340Z,55.84
2023-02-28T17:03:33.108Z,51.30
2023-02-28T17:04:28.227Z,51.32
2023-02-28T17:05:27.193Z,48.29
2023-02-28T17:06:28.009Z,47.41
2023-02-28T17:07:27.179Z,49.20
2023-02-28T17:08:27.225Z,39.32
2023-02-28T17:09:36.757Z,39.73
2023-02-28T17:10:28.175Z,40.12
2023-02-28T17:11:27.325Z,40.38
2023-02-28T17:12:27.158Z,38.20
2023-02-28T17:13:27.150Z,39.62
2023-02-28T17:14:27.160Z,33.37
2023-02-28T17:15:27.175Z,37.83
2023-02-28T17:16:27.462Z,33.43
2023-02-28T17:17:27.113Z,28.51
2023-02-28T17:18:27.121Z,30.93
2023-02-28T17:19:27.110Z,31.43
2023-02-28T17:20:27.104Z,30.20
2023-02-28T17:21:27.062Z,35.49
2023-02-28T17:22:27.117Z,34.28
2023-02-28T19:53:34.006Z,92.74
2023-02-28T19:54:34.077Z,89.74
2023-02-28T19:55:34.141Z,94.49
2023-02-28T19:56:34.203Z,94.01
2023-02-28T19:57:34.228Z,93.91
2023-02-28T19:58:34.283Z,95.07
2023-02-28T19:59:39.471Z,94.59
2023-02-28T20:00:35.326Z,94.87
2023-02-28T20:01:34.315Z,95.20
2023-02-28T20:02:34.315Z,93.05
2023-02-28T20:03:34.280Z,96.97
2023-02-28T20:04:34.327Z,96.90
2023-02-28T20:05:34.282Z,94.80
2023-02-28T20:06:34.293Z,94.69
2023-02-28T20:07:34.238Z,98.09
2023-02-28T20:08:34.275Z,96.51
2023-02-28T20:09:34.264Z,95.78
2023-02-28T20:10:34.294Z,96.62
2023-02-28T20:11:34.362Z,96.61
2023-02-28T20:12:34.410Z,95.51
2023-02-28T20:13:34.473Z,101.92
2023-02-28T20:14:34.494Z,96.03
2023-02-28T20:15:34.562Z,97.42
2023-02-28T20:16:34.585Z,99.12
2023-02-28T20:17:34.615Z,98.37
2023-02-28T20:18:34.657Z,98.39
2023-02-28T20:19:34.650Z,96.00
2023-02-28T20:20:34.669Z,100.53
2023-02-28T20:21:34.710Z,98.62
2023-02-28T20:22:37.252Z,98.04
2023-02-28T20:23:34.733Z,101.33
2023-02-28T20:24:34.747Z,99.51
2023-02-28T20:25:34.741Z,96.37
2023-02-28T20:26:34.744Z,97.42
2023-02-28T20:27:34.737Z,96.24
2023-02-28T20:28:34.743Z,97.30
2023-02-28T20:29:34.733Z,94.53
2023-02-28T20:30:34.791Z,96.75
2023-02-28T20:31:34.714Z,98.28
2023-02-28T20:32:34.700Z,99.76
2023-02-28T20:33:34.703Z,98.00
2023-02-28T20:34:34.688Z,97.49
2023-02-28T20:35:34.743Z,95.39
2023-02-28T20:36:34.653Z,102.48
2023-02-28T21:05:34.673Z,94.95
2023-02-28T21:07:34.790Z,96.95
2023-02-28T21:08:34.844Z,94.91
2023-02-28T21:09:34.877Z,95.47
2023-02-28T21:10:34.976Z,96.13
2023-02-28T21:11:35.025Z,99.68
2023-02-28T21:12:35.064Z,100.78
2023-02-28T21:13:35.110Z,95.99
2023-02-28T21:14:35.198Z,94.42
2023-02-28T21:15:35.300Z,93.89
2023-02-28T21:16:37.639Z,97.93
2023-02-28T21:17:35.306Z,98.91
2023-02-28T21:18:35.268Z,94.25
2023-02-28T21:19:35.282Z,97.69
2023-02-28T21:20:35.262Z,96.46
2023-02-28T21:21:35.272Z,96.34
2023-02-28T21:22:35.271Z,95.90
2023-02-28T21:23:35.239Z,97.59
2023-02-28T21:24:35.247Z,96.09
2023-02-28T21:25:35.238Z,98.44
2023-02-28T21:26:35.241Z,97.69
2023-02-28T21:27:35.247Z,95.68
2023-02-28T21:28:35.210Z,96.68
2023-02-28T21:29:35.187Z,97.52
2023-02-28T21:30:35.211Z,94.00
2023-02-28T21:31:35.201Z,97.86
2023-02-28T21:32:35.168Z,93.28
2023-02-28T21:33:35.188Z,95.82
2023-02-28T21:34:35.149Z,95.29
2023-02-28T21:35:35.244Z,95.85
2023-02-28T21:36:35.133Z,98.62
2023-02-28T21:37:35.161Z,97.09
2023-02-28T21:38:35.176Z,94.92
2023-02-28T21:39:35.104Z,98.20
2023-02-28T21:40:35.145Z,96.29
2023-02-28T21:41:35.140Z,95.63
2023-02-28T21:42:35.096Z,93.17
2023-02-28T21:43:35.142Z,95.12
2023-02-28T21:44:35.082Z,96.80
2023-02-28T21:45:35.079Z,94.65
